Time;durP1;ratioP1;P1;durP2;ratioP2;P2;SDS_P1;SDS_P2;PMS_P1;PMS_P2;Temp;Humidity;BMP_temperature;BMP_pressure;BME280_temperature;BME280_humidity;BME280_pressure;Samples;Min_cycle;Max_cycle;Signal;HPM_P1;HPM_P2
2022/11/21 06:11:13;;;;;;;48.22;19.58;;;;;;;1.70;100.00;100444.97;5055243;28;20056;-75
2022/11/21 06:13:39;;;;;;;48.15;19.38;;;;;;;1.74;100.00;100443.97;5092246;22;20500;-76
2022/11/21 06:16:15;;;;;;;41.15;18.80;;;;;;;1.54;100.00;100447.44;5051515;28;20035;-76
2022/11/21 06:18:42;;;;;;;43.40;19.90;;;;;;;1.47;100.00;100452.66;5059993;28;20035;-76
2022/11/21 06:21:11;;;;;;;43.70;19.05;;;;;;;1.19;100.00;100453.00;5042943;28;20384;-77
2022/11/21 06:23:36;;;;;;;43.03;17.95;;;;;;;1.22;100.00;100457.84;5058190;28;20775;-76
2022/11/21 06:26:05;;;;;;;42.40;17.10;;;;;;;1.51;100.00;100453.63;5058738;28;20030;-76
2022/11/21 06:28:32;;;;;;;36.97;17.65;;;;;;;1.53;100.00;100449.38;5061252;28;20498;-76
2022/11/21 06:31:16;;;;;;;34.53;16.65;;;;;;;1.33;100.00;100441.78;5039375;28;20449;-76
2022/11/21 06:33:42;;;;;;;45.60;19.05;;;;;;;1.48;100.00;100438.53;5057452;28;20021;-76
2022/11/21 06:36:16;;;;;;;41.67;18.00;;;;;;;1.62;100.00;100435.56;5035604;28;20028;-76
2022/11/21 06:38:42;;;;;;;38.83;17.27;;;;;;;1.61;100.00;100425.69;5059965;28;20251;-77
2022/11/21 06:41:16;;;;;;;39.70;18.27;;;;;;;1.45;100.00;100432.84;5058637;28;20036;-76
2022/11/21 06:43:42;;;;;;;35.65;15.93;;;;;;;1.32;100.00;100426.41;5061142;28;20028;-76
2022/11/21 06:46:08;;;;;;;37.88;16.95;;;;;;;1.47;100.00;100431.38;5040288;28;20036;-76
2022/11/21 06:48:34;;;;;;;37.38;17.70;;;;;;;1.31;100.00;100422.84;5056118;28;20024;-76
2022/11/21 06:51:11;;;;;;;38.03;16.10;;;;;;;1.51;100.00;100421.31;5036971;28;20047;-76
2022/11/21 06:53:36;;;;;;;41.78;18.40;;;;;;;1.61;100.00;100431.22;5047895;28;20430;-76
2022/11/21 06:56:03;;;;;;;48.38;19.15;;;;;;;1.59;100.00;100427.97;5045983;28;20020;-76
2022/11/21 06:58:28;;;;;;;40.70;17.50;;;;;;;1.53;100.00;100421.81;5046266;28;20048;-76
2022/11/21 07:00:54;;;;;;;45.83;18.92;;;;;;;1.19;100.00;100414.41;5016543;28;20032;-76
2022/11/21 07:03:21;;;;;;;49.45;19.30;;;;;;;1.12;100.00;100409.41;5031161;28;20083;-76
2022/11/21 07:05:46;;;;;;;38.83;16.42;;;;;;;1.43;100.00;100408.34;5029307;28;20033;-76
2022/11/21 07:08:11;;;;;;;70.13;17.75;;;;;;;1.10;100.00;100410.88;5020996;28;20037;-77
2022/11/21 07:10:37;;;;;;;39.55;17.58;;;;;;;1.35;100.00;100421.03;5018792;28;20943;-77
2022/11/21 07:13:20;;;;;;;42.28;18.38;;;;;;;1.21;100.00;100412.94;5024491;28;20099;-76
2022/11/21 07:15:48;;;;;;;39.92;16.50;;;;;;;1.18;100.00;100405.34;5009476;28;20170;-76
2022/11/21 07:18:13;;;;;;;50.88;17.23;;;;;;;1.15;100.00;100413.44;5018918;28;20544;-76
2022/11/21 07:20:39;;;;;;;41.25;17.80;;;;;;;1.23;100.00;100406.31;5029221;28;20032;-76
2022/11/21 07:23:05;;;;;;;41.42;17.27;;;;;;;1.19;100.00;100408.91;5032715;28;20064;-76
2022/11/21 07:25:31;;;;;;;40.33;17.13;;;;;;;1.37;100.00;100410.50;5010734;28;20752;-76
2022/11/21 07:28:01;;;;;;;49.88;16.98;;;;;;;1.05;100.00;100409.06;5009975;28;20115;-76
2022/11/21 07:30:26;;;;;;;36.88;16.50;;;;;;;1.08;100.00;100410.38;5025025;28;20102;-76
2022/11/21 07:32:59;;;;;;;44.45;17.90;;;;;;;1.05;100.00;100413.75;5026352;28;20037;-76
2022/11/21 07:35:24;;;;;;;34.45;15.60;;;;;;;1.30;100.00;100417.63;5029093;28;20664;-75
2022/11/21 07:37:50;;;;;;;34.63;15.48;;;;;;;1.41;100.00;100411.47;5035990;28;20041;-76
2022/11/21 07:40:16;;;;;;;47.63;18.05;;;;;;;1.15;100.00;100411.47;5030895;28;20499;-75
2022/11/21 07:42:42;;;;;;;41.63;17.05;;;;;;;0.91;100.00;100414.75;5034790;28;20127;-76
2022/11/21 07:45:07;;;;;;;67.13;20.42;;;;;;;1.01;100.00;100408.91;5032798;28;20042;-77
2022/11/21 07:47:33;;;;;;;38.38;16.08;;;;;;;0.94;100.00;100410.53;5031661;28;20048;-75
2022/11/21 07:49:58;;;;;;;35.50;17.00;;;;;;;1.27;100.00;100405.31;5029436;28;20114;-75
2022/11/21 07:52:24;;;;;;;41.75;16.02;;;;;;;1.40;100.00;100401.56;5034928;28;20078;-75
2022/11/21 07:54:50;;;;;;;48.88;17.73;;;;;;;1.34;100.00;100405.63;5014522;28;20730;-75
2022/11/21 07:57:15;;;;;;;39.72;16.85;;;;;;;1.44;100.00;100398.16;5036138;28;20025;-75
2022/11/21 07:59:41;;;;;;;37.20;15.95;;;;;;;1.44;100.00;100410.00;5031879;28;20400;-75
2022/11/21 08:02:06;;;;;;;42.95;18.52;;;;;;;1.41;100.00;100397.69;5030418;28;20091;-75
2022/11/21 08:04:32;;;;;;;40.22;17.48;;;;;;;1.14;100.00;100400.78;5032611;28;20607;-75
2022/11/21 08:06:57;;;;;;;43.72;18.25;;;;;;;1.14;100.00;100400.78;5036870;28;20036;-74
2022/11/21 08:09:26;;;;;;;42.70;17.70;;;;;;;1.30;100.00;100399.13;5010222;28;20097;-75
2022/11/21 08:11:52;;;;;;;39.40;16.75;;;;;;;1.33;100.00;100398.50;5013398;28;20038;-74
2022/11/21 08:14:17;;;;;;;38.63;17.65;;;;;;;1.25;100.00;100399.31;5013926;28;20022;-75
2022/11/21 08:16:42;;;;;;;44.35;19.35;;;;;;;1.17;100.00;100395.44;5019059;28;20032;-76
2022/11/21 08:19:08;;;;;;;41.88;16.85;;;;;;;1.30;100.00;100377.06;5009742;28;20064;-76
2022/11/21 08:21:33;;;;;;;38.83;17.00;;;;;;;1.17;100.00;100361.53;5013107;28;20440;-75
2022/11/21 08:23:58;;;;;;;35.97;15.55;;;;;;;1.35;100.00;100365.06;5029186;28;20045;-75
2022/11/21 08:26:26;;;;;;;42.65;16.88;;;;;;;1.49;100.00;100362.13;5015883;28;20120;-76
2022/11/21 08:28:51;;;;;;;41.30;18.92;;;;;;;1.42;100.00;100363.44;5008522;28;20487;-75
2022/11/21 08:31:17;;;;;;;39.85;16.80;;;;;;;1.54;100.00;100367.44;5014581;28;20044;-75
2022/11/21 08:33:42;;;;;;;42.15;16.65;;;;;;;1.26;100.00;100378.88;5014738;28;20025;-75
2022/11/21 08:36:07;;;;;;;35.15;14.90;;;;;;;1.52;100.00;100366.97;5010693;28;20517;-76
2022/11/21 08:38:33;;;;;;;41.47;16.85;;;;;;;1.62;100.00;100366.59;5011569;28;20037;-75
2022/11/21 08:43:56;;;;;;;45.25;19.20;;;;;;;1.24;100.00;100374.81;5008205;28;20453;-75
2022/11/21 08:46:26;;;;;;;44.22;17.02;;;;;;;1.32;100.00;100363.78;5014470;28;20556;-76
2022/11/21 08:48:53;;;;;;;40.97;17.45;;;;;;;1.47;100.00;100365.19;5014119;28;21658;-76
2022/11/21 08:51:18;;;;;;;37.88;16.42;;;;;;;1.48;100.00;100363.28;5015583;28;20028;-76
2022/11/21 08:53:44;;;;;;;40.10;15.98;;;;;;;1.59;100.00;100356.25;5012590;28;20395;-77
2022/11/21 08:56:09;;;;;;;41.45;16.55;;;;;;;1.52;100.00;100345.72;5014376;28;20389;-76
2022/11/21 08:58:34;;;;;;;38.20;17.85;;;;;;;1.68;100.00;100342.41;5013610;28;20025;-75
2022/11/21 09:00:59;;;;;;;38.08;16.08;;;;;;;1.73;100.00;100334.78;5014287;28;20060;-75
2022/11/21 09:03:25;;;;;;;44.80;18.77;;;;;;;1.71;100.00;100330.69;5012541;28;20040;-74
2022/11/21 09:05:50;;;;;;;44.78;18.83;;;;;;;2.23;100.00;100325.72;5015985;28;20036;-74
2022/11/21 09:08:15;;;;;;;43.92;18.02;;;;;;;1.91;100.00;100334.69;5015687;28;20079;-74
2022/11/21 09:10:41;;;;;;;48.35;19.75;;;;;;;2.03;100.00;100326.50;5013475;28;20541;-74
2022/11/21 09:13:06;;;;;;;58.35;19.95;;;;;;;1.52;100.00;100323.66;5031351;28;20072;-74
2022/11/21 09:18:15;;;;;;;46.88;19.77;;;;;;;1.20;100.00;100322.28;5034201;28;20072;-75
2022/11/21 09:20:43;;;;;;;47.78;20.08;;;;;;;1.32;100.00;100316.09;5032633;28;20072;-75
2022/11/21 09:23:11;;;;;;;52.40;19.42;;;;;;;1.14;100.00;100310.63;5033092;28;20025;-74
2022/11/21 09:25:37;;;;;;;52.38;21.52;;;;;;;1.00;100.00;100308.06;5035186;28;20033;-75
2022/11/21 09:28:04;;;;;;;46.80;18.90;;;;;;;1.13;100.00;100294.41;5022867;28;20037;-74
2022/11/21 09:30:29;;;;;;;51.67;21.63;;;;;;;0.92;100.00;100289.59;5039366;28;20036;-74
2022/11/21 09:33:02;;;;;;;45.92;19.00;;;;;;;1.26;100.00;100293.41;5034997;28;20043;-74
2022/11/21 09:35:28;;;;;;;57.90;22.20;;;;;;;2.61;100.00;100304.63;5039446;28;20025;-74
2022/11/21 09:37:54;;;;;;;36.00;15.23;;;;;;;3.21;100.00;100300.47;5035404;28;20037;-75
2022/11/21 09:40:20;;;;;;;52.72;21.25;;;;;;;2.56;100.00;100302.88;5039182;28;20048;-74
2022/11/21 09:43:00;;;;;;;49.80;20.83;;;;;;;1.95;100.00;100299.75;5036639;28;20033;-74
2022/11/21 09:45:33;;;;;;;40.42;15.55;;;;;;;2.26;100.00;100293.03;5040864;28;20037;-74
2022/11/21 09:48:02;;;;;;;52.70;20.38;;;;;;;1.53;100.00;100296.88;5038630;28;20070;-74
2022/11/21 09:50:35;;;;;;;47.72;18.63;;;;;;;1.55;100.00;100289.88;5026698;28;20377;-74
2022/11/21 09:53:30;;;;;;;51.15;21.70;;;;;;;1.40;100.00;100282.97;5015712;28;20490;-74
2022/11/21 09:55:58;;;;;;;46.15;20.20;;;;;;;1.65;100.00;100283.19;5038053;28;20149;-74
2022/11/21 09:58:24;;;;;;;51.80;19.42;;;;;;;1.69;100.00;100270.34;5037229;28;20060;-74
2022/11/21 10:00:51;;;;;;;50.45;21.23;;;;;;;1.30;100.00;100261.28;5049745;28;20095;-74
2022/11/21 10:03:18;;;;;;;48.22;20.55;;;;;;;1.34;100.00;100267.75;5044409;28;20071;-74
2022/11/21 10:05:48;;;;;;;45.53;19.83;;;;;;;1.52;100.00;100251.94;5035686;28;20037;-74
2022/11/21 10:08:29;;;;;;;51.35;20.85;;;;;;;1.20;100.00;100240.41;5019196;28;20427;-75
2022/11/21 10:10:59;;;;;;;48.22;19.95;;;;;;;2.17;100.00;100240.63;5028181;28;20368;-74
2022/11/21 10:13:36;;;;;;;61.72;23.83;;;;;;;1.87;100.00;100245.41;5022057;28;20041;-74
2022/11/21 10:16:19;;;;;;;53.90;22.55;;;;;;;2.13;100.00;100240.53;5036953;28;20048;-75
2022/11/21 10:19:14;;;;;;;53.65;22.10;;;;;;;1.66;100.00;100240.66;5032883;28;20147;-74
2022/11/21 10:21:53;;;;;;;49.50;20.60;;;;;;;1.49;100.00;100230.53;5002163;28;20095;-74
2022/11/21 10:24:42;;;;;;;53.88;22.55;;;;;;;1.55;100.00;100228.41;5038985;28;20424;-74
2022/11/21 10:27:36;;;;;;;52.40;20.58;;;;;;;1.55;100.00;100217.38;5035370;28;20162;-74
2022/11/21 10:30:05;;;;;;;63.20;26.23;;;;;;;1.49;100.00;100219.50;5029859;28;20045;-74
2022/11/21 10:32:49;;;;;;;59.35;22.73;;;;;;;1.51;100.00;100200.66;5034379;28;21895;-74
2022/11/21 10:35:36;;;;;;;57.92;22.42;;;;;;;1.60;100.00;100204.19;5044156;28;20017;-74
2022/11/21 10:38:13;;;;;;;51.30;23.35;;;;;;;1.64;100.00;100201.56;5033556;28;20523;-74
2022/11/21 10:40:44;;;;;;;53.22;21.95;;;;;;;1.71;100.00;100203.78;5036193;28;20024;-74
2022/11/21 10:46:14;;;;;;;52.35;21.45;;;;;;;1.77;100.00;100191.41;5037421;28;20036;-74
2022/11/21 10:48:39;;;;;;;52.88;20.88;;;;;;;1.62;100.00;100181.78;5033297;28;20025;-75
2022/11/21 10:51:21;;;;;;;55.58;23.73;;;;;;;1.79;100.00;100181.69;5038327;28;20039;-74
2022/11/21 10:56:33;;;;;;;56.95;22.10;;;;;;;1.77;100.00;100174.84;5037958;28;20403;-74
2022/11/21 10:59:11;;;;;;;54.25;22.90;;;;;;;1.76;100.00;100174.06;5038212;28;20036;-74
2022/11/21 11:01:37;;;;;;;58.28;22.80;;;;;;;1.90;100.00;100164.69;5037694;28;20036;-74
2022/11/21 11:04:06;;;;;;;55.28;22.35;;;;;;;1.86;100.00;100156.31;5031194;28;20373;-75
2022/11/21 11:06:32;;;;;;;53.28;21.85;;;;;;;1.87;100.00;100143.31;5037682;28;20515;-76
2022/11/21 11:08:57;;;;;;;49.28;18.90;;;;;;;1.96;100.00;100133.00;5029979;28;20088;-75
2022/11/21 11:11:24;;;;;;;54.92;22.67;;;;;;;2.10;100.00;100133.50;5034781;28;20056;-75
2022/11/21 11:13:56;;;;;;;45.03;21.40;;;;;;;1.77;100.00;100134.28;5035131;28;20075;-74
2022/11/21 11:16:23;;;;;;;47.83;20.52;;;;;;;1.95;100.00;100150.72;5037230;28;20039;-75
2022/11/21 11:19:03;;;;;;;47.90;20.58;;;;;;;2.02;100.00;100149.03;5032421;28;20060;-75
2022/11/21 11:21:40;;;;;;;47.85;19.27;;;;;;;2.01;100.00;100146.59;5032250;28;20116;-74
2022/11/21 11:24:08;;;;;;;50.55;21.13;;;;;;;1.90;100.00;100143.44;5037118;28;20461;-74
2022/11/21 11:26:49;;;;;;;52.75;22.42;;;;;;;1.90;100.00;100145.38;5019514;28;20037;-75
2022/11/21 11:29:15;;;;;;;56.47;21.00;;;;;;;2.05;100.00;100146.75;5030277;28;20111;-74
2022/11/21 11:31:55;;;;;;;47.80;18.95;;;;;;;2.18;100.00;100140.13;5034220;28;20041;-75
2022/11/21 11:34:21;;;;;;;52.92;20.73;;;;;;;2.17;100.00;100139.31;5037449;28;20028;-75
2022/11/21 11:37:24;;;;;;;47.78;20.75;;;;;;;2.14;100.00;100128.13;5031672;28;20525;-74
2022/11/21 11:39:58;;;;;;;51.47;21.08;;;;;;;2.14;100.00;100123.41;5020866;28;20033;-75
2022/11/21 11:48:29;;;;;;;59.65;22.75;;;;;;;2.17;100.00;100110.88;5033709;28;20054;-74
2022/11/21 11:51:01;;;;;;;52.60;20.25;;;;;;;2.19;100.00;100109.41;5036138;28;20033;-75
2022/11/21 11:53:33;;;;;;;50.90;20.33;;;;;;;2.21;100.00;100096.06;5033465;28;20018;-76
2022/11/21 11:56:04;;;;;;;53.97;20.42;;;;;;;2.36;100.00;100096.53;5033472;28;20051;-74
2022/11/21 11:58:47;;;;;;;45.85;19.08;;;;;;;2.35;100.00;100092.19;5031282;28;20491;-75
2022/11/21 12:01:48;;;;;;;47.80;18.27;;;;;;;2.42;100.00;100084.13;5034501;28;20098;-74
2022/11/21 12:04:19;;;;;;;44.65;18.08;;;;;;;2.45;100.00;100083.47;5027782;28;20845;-75
2022/11/21 12:07:24;;;;;;;58.35;20.60;;;;;;;2.51;100.00;100082.09;5028965;28;20028;-76
2022/11/21 12:10:03;;;;;;;53.15;19.95;;;;;;;2.52;100.00;100075.41;4905452;29;20023;-74
2022/11/21 12:12:36;;;;;;;51.35;21.15;;;;;;;2.60;100.00;100063.44;5012379;28;20626;-74
2022/11/21 12:18:19;;;;;;;68.10;23.23;;;;;;;2.72;100.00;100059.06;5034742;28;20048;-74
2022/11/21 12:20:49;;;;;;;62.92;23.83;;;;;;;2.74;100.00;100048.47;5040356;28;20055;-74
2022/11/21 12:23:16;;;;;;;60.75;23.95;;;;;;;2.82;100.00;100047.56;5030439;28;20071;-74
2022/11/21 12:26:12;;;;;;;64.30;24.83;;;;;;;2.80;100.00;100047.09;5032685;28;20037;-74
2022/11/21 12:28:55;;;;;;;56.63;20.90;;;;;;;2.82;100.00;100042.03;4997255;28;20059;-74
2022/11/21 12:31:52;;;;;;;64.18;24.15;;;;;;;2.86;100.00;100042.94;5034092;28;20040;-74
2022/11/21 12:34:36;;;;;;;57.85;24.17;;;;;;;2.95;100.00;100024.31;5038155;28;20029;-74
2022/11/21 12:37:18;;;;;;;70.47;24.88;;;;;;;2.98;100.00;100022.78;5034383;28;20760;-74
2022/11/21 12:40:16;;;;;;;58.17;23.25;;;;;;;3.00;100.00;100026.03;5027004;28;20380;-74
2022/11/21 12:43:39;;;;;;;58.28;22.95;;;;;;;3.03;100.00;100017.00;5033681;28;20123;-74
2022/11/21 12:46:24;;;;;;;66.40;23.95;;;;;;;3.05;100.00;100017.47;4991883;28;20452;-74
2022/11/21 12:55:06;;;;;;;72.38;25.13;;;;;;;3.15;100.00;100007.91;5031487;28;20593;-74
2022/11/21 12:57:50;;;;;;;64.32;22.70;;;;;;;3.13;100.00;100004.69;5026707;28;20024;-74
2022/11/21 13:00:51;;;;;;;70.05;25.00;;;;;;;3.21;100.00;99998.22;5033879;28;21125;-75
2022/11/21 13:03:45;;;;;;;68.18;25.77;;;;;;;3.27;100.00;99994.06;5034312;28;20502;-74
2022/11/21 13:06:27;;;;;;;76.65;26.25;;;;;;;3.21;100.00;99976.88;5035202;28;20445;-74
2022/11/21 13:08:55;;;;;;;67.47;23.38;;;;;;;3.21;100.00;99965.03;5028883;28;20032;-75
2022/11/21 13:14:16;;;;;;;77.72;27.52;;;;;;;3.30;100.00;99973.97;5037287;28;20044;-74
2022/11/21 13:16:48;;;;;;;67.75;24.58;;;;;;;3.31;100.00;99964.53;5017410;28;20102;-74
2022/11/21 13:19:21;;;;;;;72.63;28.42;;;;;;;3.28;100.00;99959.69;5037335;28;20060;-74
2022/11/21 13:21:49;;;;;;;67.45;23.92;;;;;;;3.33;100.00;99961.41;5037391;28;20400;-74
2022/11/21 13:24:43;;;;;;;72.97;23.67;;;;;;;3.40;100.00;99956.88;5040540;28;20036;-74
2022/11/21 13:27:09;;;;;;;;;;;;;;;3.37;100.00;99946.53;5036152;28;20048;-75
2022/11/21 13:29:35;;;;;;;61.88;23.23;;;;;;;3.44;100.00;99945.94;5033719;28;19924;-74
2022/11/21 13:32:39;;;;;;;66.95;22.25;;;;;;;3.42;100.00;99932.44;5030959;28;20035;-75
2022/11/21 13:35:14;;;;;;;63.72;23.17;;;;;;;3.42;100.00;99924.13;5017651;28;20438;-74
2022/11/21 13:37:48;;;;;;;70.00;24.52;;;;;;;3.50;100.00;99925.16;5040438;28;20116;-74
2022/11/21 13:40:26;;;;;;;69.13;23.88;;;;;;;3.51;100.00;99909.34;5030443;28;20383;-74
2022/11/21 13:43:18;;;;;;;78.45;25.45;;;;;;;3.52;100.00;99908.19;5020015;28;20518;-74
2022/11/21 13:45:44;;;;;;;68.07;26.23;;;;;;;3.62;100.00;99904.91;5034902;28;20047;-74
2022/11/21 13:48:30;;;;;;;74.75;26.13;;;;;;;3.55;100.00;99894.44;5032595;28;20032;-74
2022/11/21 13:51:14;;;;;;;69.22;24.30;;;;;;;3.60;100.00;99905.25;5024568;28;20507;-74
2022/11/21 13:54:04;;;;;;;77.65;24.63;;;;;;;3.54;100.00;99900.31;5029648;28;20044;-75
2022/11/21 13:56:51;;;;;;;72.72;26.10;;;;;;;3.55;100.00;99899.19;5032565;28;20495;-74
2022/11/21 13:59:27;;;;;;;71.30;24.20;;;;;;;3.62;100.00;99891.84;5031172;28;20090;-74
2022/11/21 14:02:17;;;;;;;71.40;24.38;;;;;;;3.63;100.00;99881.63;5032089;28;20115;-74
2022/11/21 14:05:14;;;;;;;76.07;23.08;;;;;;;3.67;100.00;99882.50;5033686;28;20746;-74
2022/11/21 14:07:41;;;;;;;69.60;26.00;;;;;;;3.70;100.00;99867.94;5030968;28;20547;-74
2022/11/21 14:10:32;;;;;;;76.93;27.05;;;;;;;3.77;100.00;99864.56;5027158;28;20583;-74
2022/11/21 14:13:00;;;;;;;67.32;23.38;;;;;;;3.75;100.00;99853.03;5035448;28;20645;-75
2022/11/21 14:15:44;;;;;;;76.40;27.00;;;;;;;3.72;100.00;99845.47;5038255;28;20070;-74
2022/11/21 14:18:23;;;;;;;77.40;25.95;;;;;;;3.74;100.00;99846.69;5025787;28;20773;-74
2022/11/21 14:21:00;;;;;;;73.90;23.88;;;;;;;3.84;100.00;99843.41;5042781;28;20060;-74
2022/11/21 14:23:32;;;;;;;80.88;26.38;;;;;;;3.78;100.00;99850.38;5032281;28;20373;-74
2022/11/21 14:26:04;;;;;;;77.15;25.67;;;;;;;3.76;100.00;99847.16;5035193;28;20037;-74
2022/11/21 14:28:31;;;;;;;77.00;26.88;;;;;;;3.78;100.00;99850.38;5035450;28;20040;-74
2022/11/21 14:30:58;;;;;;;64.72;24.08;;;;;;;3.86;100.00;99852.16;5021705;28;20032;-74
2022/11/21 14:33:44;;;;;;;79.18;27.80;;;;;;;3.97;100.00;99840.53;5024150;28;20039;-75
2022/11/21 14:36:16;;;;;;;84.32;28.77;;;;;;;3.84;100.00;99832.34;5037726;28;20041;-75
2022/11/21 14:38:54;;;;;;;75.00;26.60;;;;;;;3.91;100.00;99825.38;5038140;28;20100;-75
2022/11/21 14:41:24;;;;;;;71.07;25.50;;;;;;;3.94;100.00;99830.97;5035769;28;20032;-75
2022/11/21 14:43:56;;;;;;;71.57;28.15;;;;;;;3.93;100.00;99820.28;5034312;28;20045;-75
2022/11/21 14:46:21;;;;;;;68.80;25.38;;;;;;;3.95;100.00;99821.50;5035034;28;20091;-75
2022/11/21 14:48:47;;;;;;;81.90;27.00;;;;;;;4.00;100.00;99814.88;5024484;28;20499;-75
2022/11/21 14:51:19;;;;;;;68.25;24.73;;;;;;;4.04;100.00;99802.72;5018085;28;20038;-75
2022/11/21 14:53:46;;;;;;;81.82;28.33;;;;;;;4.05;100.00;99803.56;5031883;28;20079;-75
2022/11/21 14:56:26;;;;;;;68.30;25.45;;;;;;;4.13;100.00;99808.06;5038587;28;20025;-75
2022/11/21 14:58:52;;;;;;;83.97;27.02;;;;;;;4.05;100.00;99798.03;5036287;28;20500;-75
2022/11/21 15:01:20;;;;;;;84.45;28.67;;;;;;;4.16;100.00;99787.97;5036324;28;20069;-74
2022/11/21 15:04:01;;;;;;;78.47;28.10;;;;;;;4.15;100.00;99791.09;5035767;28;21344;-74
2022/11/21 15:06:28;;;;;;;80.20;27.48;;;;;;;4.21;100.00;99789.66;5036401;28;20031;-74
2022/11/21 15:08:55;;;;;;;83.60;28.48;;;;;;;4.06;100.00;99774.69;5033859;28;20029;-75
2022/11/21 15:11:23;;;;;;;76.53;27.67;;;;;;;4.09;100.00;99776.75;5033919;28;20048;-74
2022/11/21 15:13:54;;;;;;;90.82;30.42;;;;;;;4.10;100.00;99772.81;5036677;28;20496;-74
2022/11/21 15:16:22;;;;;;;70.05;26.30;;;;;;;4.15;100.00;99764.19;5035087;28;20071;-75
2022/11/21 15:18:48;;;;;;;88.97;31.50;;;;;;;4.12;100.00;99755.84;5037484;28;20070;-75
2022/11/21 15:21:15;;;;;;;74.85;28.77;;;;;;;4.13;100.00;99744.38;5040808;28;20391;-75
2022/11/21 15:23:42;;;;;;;75.57;26.85;;;;;;;4.11;100.00;99743.97;5039553;28;20450;-75
2022/11/21 15:26:29;;;;;;;72.28;25.77;;;;;;;4.12;100.00;99751.09;5041574;28;20029;-75
2022/11/21 15:28:56;;;;;;;70.10;26.70;;;;;;;4.04;100.00;99741.81;5046542;28;20029;-75
2022/11/21 15:31:22;;;;;;;68.38;26.50;;;;;;;4.15;100.00;99739.28;5035721;28;20045;-74
2022/11/21 15:34:02;;;;;;;85.07;29.40;;;;;;;4.04;100.00;99729.94;5020802;28;20111;-75
2022/11/21 15:36:29;;;;;;;72.13;27.27;;;;;;;3.99;100.00;99727.47;5034939;28;20043;-75
2022/11/21 15:39:00;;;;;;;83.55;28.52;;;;;;;3.99;100.00;99735.78;5020576;28;21191;-75
2022/11/21 15:41:35;;;;;;;73.72;26.92;;;;;;;4.12;100.00;99731.69;5039012;28;20124;-75
2022/11/21 15:44:01;;;;;;;77.28;29.25;;;;;;;4.13;100.00;99724.19;5034831;28;20392;-75
2022/11/21 15:46:30;;;;;;;93.28;27.65;;;;;;;4.09;100.00;99726.91;5030928;28;20033;-74
2022/11/21 15:49:01;;;;;;;84.38;28.92;;;;;;;4.02;100.00;99710.91;5031498;28;20036;-74
2022/11/21 15:51:32;;;;;;;73.40;29.60;;;;;;;4.00;100.00;99704.13;5024870;28;23285;-74
2022/11/21 15:53:57;;;;;;;74.05;27.98;;;;;;;4.06;100.00;99711.00;5037018;28;20027;-74
2022/11/21 15:56:23;;;;;;;91.85;31.75;;;;;;;4.03;100.00;99708.97;5032714;28;20040;-75
2022/11/21 15:58:48;;;;;;;90.22;28.55;;;;;;;4.02;100.00;99721.19;5036380;28;20143;-75
2022/11/21 16:01:17;;;;;;;90.78;29.55;;;;;;;4.08;100.00;99714.22;5017952;28;20044;-75
2022/11/21 16:03:43;;;;;;;92.32;30.50;;;;;;;4.04;100.00;99714.13;5035162;28;20032;-74
2022/11/21 16:06:09;;;;;;;84.03;29.88;;;;;;;4.04;100.00;99702.25;5022788;28;20497;-75
2022/11/21 16:08:35;;;;;;;93.55;30.90;;;;;;;4.08;100.00;99705.91;5035364;28;20090;-74
2022/11/21 16:11:00;;;;;;;88.88;30.35;;;;;;;4.12;100.00;99692.94;5039831;28;20058;-74
2022/11/21 16:13:25;;;;;;;88.57;33.03;;;;;;;4.18;100.00;99687.91;5039589;28;20076;-75
2022/11/21 16:15:51;;;;;;;97.10;33.30;;;;;;;4.01;100.00;99676.09;5034959;28;20037;-75
2022/11/21 16:18:16;;;;;;;80.90;31.67;;;;;;;4.00;100.00;99674.47;5046299;28;20025;-74
2022/11/21 16:20:41;;;;;;;95.05;33.03;;;;;;;4.98;100.00;99666.06;5015382;28;20439;-74
2022/11/21 16:23:10;;;;;;;83.63;31.65;;;;;;;4.38;100.00;99664.56;5034263;28;20151;-74
2022/11/21 16:25:35;;;;;;;100.45;31.40;;;;;;;4.22;100.00;99659.13;5036731;28;20075;-74
2022/11/21 16:28:01;;;;;;;88.95;29.48;;;;;;;4.13;100.00;99652.19;5020064;28;20595;-74
2022/11/21 16:30:26;;;;;;;77.70;28.80;;;;;;;4.16;100.00;99655.03;5033652;28;20506;-74
2022/11/21 16:32:54;;;;;;;89.38;31.83;;;;;;;4.06;100.00;99647.31;5020743;28;20044;-74
2022/11/21 16:35:20;;;;;;;86.82;30.45;;;;;;;4.10;100.00;99650.97;5028840;28;21879;-74
2022/11/21 16:37:45;;;;;;;77.00;26.33;;;;;;;4.00;100.00;99646.78;5032315;28;20245;-75
2022/11/21 16:40:11;;;;;;;84.25;30.13;;;;;;;4.16;100.00;99638.41;5020850;28;20044;-75
2022/11/21 16:42:36;;;;;;;89.72;30.10;;;;;;;4.07;100.00;99632.31;5027957;28;20051;-74
2022/11/21 16:45:02;;;;;;;85.60;28.45;;;;;;;4.04;100.00;99619.19;5032369;28;20037;-74
2022/11/21 16:47:27;;;;;;;93.68;32.90;;;;;;;4.08;100.00;99620.84;5037126;28;20051;-74
2022/11/21 16:49:52;;;;;;;92.03;33.63;;;;;;;4.03;100.00;99623.91;5039501;28;20035;-75
2022/11/21 16:52:18;;;;;;;88.90;32.10;;;;;;;4.07;100.00;99618.47;5040081;28;20043;-74
2022/11/21 16:54:43;;;;;;;91.65;32.90;;;;;;;4.04;100.00;99605.34;5037191;28;20433;-74
2022/11/21 16:57:08;;;;;;;93.80;33.72;;;;;;;4.17;100.00;99611.53;5038581;28;20039;-75
2022/11/21 16:59:34;;;;;;;96.07;33.03;;;;;;;4.08;100.00;99600.66;5040062;28;20041;-74
2022/11/21 17:01:59;;;;;;;78.80;30.55;;;;;;;4.13;100.00;99605.91;5021200;28;20031;-74
2022/11/21 17:04:24;;;;;;;83.20;30.15;;;;;;;4.13;100.00;99599.56;5020770;28;20125;-74
2022/11/21 17:06:50;;;;;;;90.97;31.55;;;;;;;4.07;100.00;99601.84;5002034;28;20149;-74
2022/11/21 17:09:16;;;;;;;103.13;37.97;;;;;;;4.40;100.00;99595.75;5025300;28;20033;-75
2022/11/21 17:11:41;;;;;;;92.50;32.55;;;;;;;4.21;100.00;99602.09;5027914;28;20115;-76
2022/11/21 17:14:10;;;;;;;88.20;35.50;;;;;;;4.16;100.00;99596.88;5016905;28;20121;-74
2022/11/21 17:16:36;;;;;;;102.63;38.08;;;;;;;4.25;100.00;99602.97;5032544;28;20941;-75
2022/11/21 17:19:03;;;;;;;121.25;44.38;;;;;;;4.05;100.00;99593.91;5030948;28;20033;-75
2022/11/21 17:21:29;;;;;;;105.22;40.58;;;;;;;4.06;100.00;99600.22;5029339;28;20392;-75
2022/11/21 17:23:55;;;;;;;103.63;37.75;;;;;;;4.06;100.00;99597.47;5031378;28;20037;-74
2022/11/21 17:26:23;;;;;;;130.65;45.88;;;;;;;4.20;100.00;99594.19;5013571;28;20445;-75
2022/11/21 17:28:56;;;;;;;135.93;46.88;;;;;;;4.12;100.00;99593.22;5032150;28;20032;-75
2022/11/21 17:31:22;;;;;;;121.22;42.97;;;;;;;4.07;100.00;99586.03;5031546;28;20048;-74
2022/11/21 17:33:50;;;;;;;97.95;37.03;;;;;;;4.09;100.00;99588.44;5032902;28;20428;-74
2022/11/21 17:36:18;;;;;;;84.80;34.72;;;;;;;4.12;100.00;99581.38;5030646;28;20115;-74
2022/11/21 17:38:46;;;;;;;111.32;40.90;;;;;;;4.13;100.00;99567.13;5025650;28;20480;-75
2022/11/21 17:41:13;;;;;;;109.10;41.47;;;;;;;4.09;100.00;99571.81;5022971;28;20025;-74
2022/11/21 17:43:38;;;;;;;122.97;47.55;;;;;;;4.11;100.00;99563.13;5032552;28;20041;-74
2022/11/21 17:46:06;;;;;;;113.53;39.55;;;;;;;4.07;100.00;99557.53;5031693;28;20025;-75
2022/11/21 17:48:33;;;;;;;117.05;43.88;;;;;;;4.07;100.00;99558.34;5025973;28;20638;-74
2022/11/21 17:51:15;;;;;;;114.18;40.25;;;;;;;4.07;100.00;99546.47;5028199;28;20116;-74
2022/11/21 17:53:43;;;;;;;123.20;45.67;;;;;;;4.03;100.00;99540.06;5027132;28;20831;-74
2022/11/21 17:56:12;;;;;;;125.28;45.55;;;;;;;4.05;100.00;99529.41;5025833;28;20512;-74
2022/11/21 17:58:37;;;;;;;117.53;40.40;;;;;;;4.01;100.00;99531.31;5021055;28;20037;-74
2022/11/21 18:01:04;;;;;;;124.82;42.72;;;;;;;4.09;100.00;99530.28;5012291;28;20032;-73
2022/11/21 18:03:30;;;;;;;118.10;44.33;;;;;;;4.13;100.00;99531.13;5019766;28;20025;-74
2022/11/21 18:06:15;;;;;;;122.72;41.83;;;;;;;4.11;100.00;99519.66;5028539;28;20038;-74
2022/11/21 18:08:43;;;;;;;115.20;41.15;;;;;;;4.05;100.00;99521.91;5028258;28;20040;-74
2022/11/21 18:11:10;;;;;;;117.13;42.38;;;;;;;4.14;100.00;99515.34;5010693;28;20428;-75